Terminal Aerodrome Forecast
Issued by NWS Paducah, KY

Home | Current Version | Previous Version | Text Only | Print | Product List | Glossary On
Versions: 1 2 3 4 5 6 7 8 9 10 11 12 13 14 15 16 17 18 19 20 21 22 23
000
FTUS43 KPAH 311140
TAFEVV
TAF
KEVV 311140Z 3112/0112 30009KT P6SM OVC006
     FM311600 31007KT P6SM SCT007 OVC015
     FM311900 35007KT P6SM SCT015 OVC025
     FM010200 01005KT 6SM BR OVC012
     FM010500 01007KT 5SM BR OVC008=

USA.gov is the U.S. government's official web portal to all federal, state and local government web resources and services.